sensor_id;sensor_type;location;lat;lon;timestamp;P1;durP1;ratioP1;P2;durP2;ratioP2
18100;SDS011;9177;49.156;8.142;2023-12-20T00:00:34;6.43;;;5.70;;
18100;SDS011;9177;49.156;8.142;2023-12-20T00:03:03;5.83;;;5.23;;
18100;SDS011;9177;49.156;8.142;2023-12-20T00:05:30;5.80;;;5.30;;
18100;SDS011;9177;49.156;8.142;2023-12-20T00:08:03;5.60;;;5.10;;
18100;SDS011;9177;49.156;8.142;2023-12-20T00:10:30;5.87;;;5.37;;
18100;SDS011;9177;49.156;8.142;2023-12-20T00:13:01;5.60;;;5.17;;
18100;SDS011;9177;49.156;8.142;2023-12-20T00:15:28;6.00;;;5.40;;
18100;SDS011;9177;49.156;8.142;2023-12-20T00:17:54;5.30;;;4.80;;
18100;SDS011;9177;49.156;8.142;2023-12-20T00:20:21;5.40;;;4.87;;
18100;SDS011;9177;49.156;8.142;2023-12-20T00:22:48;5.20;;;4.70;;
18100;SDS011;9177;49.156;8.142;2023-12-20T00:25:15;4.50;;;4.10;;
18100;SDS011;9177;49.156;8.142;2023-12-20T00:27:42;4.90;;;4.50;;
18100;SDS011;9177;49.156;8.142;2023-12-20T00:30:11;5.33;;;4.70;;
18100;SDS011;9177;49.156;8.142;2023-12-20T00:32:38;5.00;;;4.50;;
18100;SDS011;9177;49.156;8.142;2023-12-20T00:35:11;6.00;;;4.60;;
18100;SDS011;9177;49.156;8.142;2023-12-20T00:37:37;5.10;;;4.47;;
18100;SDS011;9177;49.156;8.142;2023-12-20T00:40:05;4.73;;;4.33;;
18100;SDS011;9177;49.156;8.142;2023-12-20T00:42:32;4.37;;;4.07;;
18100;SDS011;9177;49.156;8.142;2023-12-20T00:45:02;4.40;;;4.10;;
18100;SDS011;9177;49.156;8.142;2023-12-20T00:47:32;4.77;;;4.37;;
18100;SDS011;9177;49.156;8.142;2023-12-20T00:49:59;4.10;;;3.70;;
18100;SDS011;9177;49.156;8.142;2023-12-20T00:52:26;4.07;;;3.73;;
18100;SDS011;9177;49.156;8.142;2023-12-20T00:54:53;4.73;;;4.30;;
18100;SDS011;9177;49.156;8.142;2023-12-20T00:57:19;4.87;;;4.47;;
18100;SDS011;9177;49.156;8.142;2023-12-20T00:59:46;4.30;;;4.00;;
18100;SDS011;9177;49.156;8.142;2023-12-20T01:02:15;4.50;;;3.77;;
18100;SDS011;9177;49.156;8.142;2023-12-20T01:04:44;4.40;;;4.00;;
18100;SDS011;9177;49.156;8.142;2023-12-20T01:07:13;4.40;;;4.00;;
18100;SDS011;9177;49.156;8.142;2023-12-20T01:09:40;3.83;;;3.53;;
18100;SDS011;9177;49.156;8.142;2023-12-20T01:12:09;3.97;;;3.67;;
18100;SDS011;9177;49.156;8.142;2023-12-20T01:14:35;4.10;;;3.80;;
18100;SDS011;9177;49.156;8.142;2023-12-20T01:17:02;3.70;;;3.40;;
18100;SDS011;9177;49.156;8.142;2023-12-20T01:19:29;3.87;;;3.53;;
18100;SDS011;9177;49.156;8.142;2023-12-20T01:21:58;3.37;;;3.07;;
18100;SDS011;9177;49.156;8.142;2023-12-20T01:24:25;3.90;;;3.60;;
18100;SDS011;9177;49.156;8.142;2023-12-20T01:26:51;3.50;;;3.20;;
18100;SDS011;9177;49.156;8.142;2023-12-20T01:29:18;3.60;;;3.30;;
18100;SDS011;9177;49.156;8.142;2023-12-20T01:31:48;3.33;;;2.90;;
18100;SDS011;9177;49.156;8.142;2023-12-20T01:34:15;3.50;;;3.20;;
18100;SDS011;9177;49.156;8.142;2023-12-20T01:36:42;3.30;;;3.03;;
18100;SDS011;9177;49.156;8.142;2023-12-20T01:39:10;3.60;;;3.30;;
18100;SDS011;9177;49.156;8.142;2023-12-20T01:41:37;3.10;;;2.83;;
18100;SDS011;9177;49.156;8.142;2023-12-20T01:44:04;2.80;;;2.60;;
18100;SDS011;9177;49.156;8.142;2023-12-20T01:46:31;2.93;;;2.70;;
18100;SDS011;9177;49.156;8.142;2023-12-20T01:49:00;2.80;;;2.60;;
18100;SDS011;9177;49.156;8.142;2023-12-20T01:51:27;3.47;;;3.17;;
18100;SDS011;9177;49.156;8.142;2023-12-20T01:53:56;2.87;;;2.57;;
18100;SDS011;9177;49.156;8.142;2023-12-20T01:56:29;2.90;;;2.70;;
18100;SDS011;9177;49.156;8.142;2023-12-20T01:58:57;2.97;;;2.77;;
18100;SDS011;9177;49.156;8.142;2023-12-20T02:01:25;3.17;;;2.60;;
18100;SDS011;9177;49.156;8.142;2023-12-20T02:03:53;2.40;;;2.20;;
18100;SDS011;9177;49.156;8.142;2023-12-20T02:06:21;3.40;;;3.07;;
18100;SDS011;9177;49.156;8.142;2023-12-20T02:08:49;2.33;;;2.13;;
18100;SDS011;9177;49.156;8.142;2023-12-20T02:11:16;2.47;;;2.27;;
18100;SDS011;9177;49.156;8.142;2023-12-20T02:13:47;2.50;;;2.30;;
18100;SDS011;9177;49.156;8.142;2023-12-20T02:16:17;2.07;;;1.97;;
18100;SDS011;9177;49.156;8.142;2023-12-20T02:18:44;2.50;;;2.30;;
18100;SDS011;9177;49.156;8.142;2023-12-20T02:21:13;2.57;;;2.37;;
18100;SDS011;9177;49.156;8.142;2023-12-20T02:23:42;2.70;;;2.50;;
18100;SDS011;9177;49.156;8.142;2023-12-20T02:26:10;2.20;;;2.00;;
18100;SDS011;9177;49.156;8.142;2023-12-20T02:28:38;2.27;;;2.00;;
18100;SDS011;9177;49.156;8.142;2023-12-20T02:31:08;2.53;;;2.33;;
18100;SDS011;9177;49.156;8.142;2023-12-20T02:33:34;2.43;;;2.23;;
18100;SDS011;9177;49.156;8.142;2023-12-20T02:36:01;2.07;;;1.97;;
18100;SDS011;9177;49.156;8.142;2023-12-20T02:38:28;2.27;;;2.07;;
18100;SDS011;9177;49.156;8.142;2023-12-20T02:41:00;1.90;;;1.80;;
18100;SDS011;9177;49.156;8.142;2023-12-20T02:43:27;2.27;;;2.10;;
18100;SDS011;9177;49.156;8.142;2023-12-20T02:45:53;1.87;;;1.77;;
18100;SDS011;9177;49.156;8.142;2023-12-20T02:48:23;2.27;;;1.90;;
18100;SDS011;9177;49.156;8.142;2023-12-20T02:50:50;2.17;;;2.07;;
18100;SDS011;9177;49.156;8.142;2023-12-20T02:53:20;1.90;;;1.80;;
18100;SDS011;9177;49.156;8.142;2023-12-20T02:55:47;2.33;;;1.97;;
18100;SDS011;9177;49.156;8.142;2023-12-20T02:58:18;1.90;;;1.80;;
18100;SDS011;9177;49.156;8.142;2023-12-20T03:00:45;1.77;;;1.67;;
18100;SDS011;9177;49.156;8.142;2023-12-20T03:03:12;1.70;;;1.60;;
18100;SDS011;9177;49.156;8.142;2023-12-20T03:05:45;2.27;;;2.00;;
18100;SDS011;9177;49.156;8.142;2023-12-20T03:08:12;1.73;;;1.63;;
18100;SDS011;9177;49.156;8.142;2023-12-20T03:10:39;1.83;;;1.73;;
18100;SDS011;9177;49.156;8.142;2023-12-20T03:13:05;1.53;;;1.43;;
18100;SDS011;9177;49.156;8.142;2023-12-20T03:15:34;2.30;;;1.80;;
18100;SDS011;9177;49.156;8.142;2023-12-20T03:18:01;1.77;;;1.67;;
18100;SDS011;9177;49.156;8.142;2023-12-20T03:20:28;2.10;;;1.40;;
18100;SDS011;9177;49.156;8.142;2023-12-20T03:22:56;1.90;;;1.60;;
18100;SDS011;9177;49.156;8.142;2023-12-20T03:25:23;1.60;;;1.50;;
18100;SDS011;9177;49.156;8.142;2023-12-20T03:27:50;1.60;;;1.50;;
18100;SDS011;9177;49.156;8.142;2023-12-20T03:30:18;1.70;;;1.60;;
18100;SDS011;9177;49.156;8.142;2023-12-20T03:32:46;1.57;;;1.47;;
18100;SDS011;9177;49.156;8.142;2023-12-20T03:35:13;1.80;;;1.60;;
18100;SDS011;9177;49.156;8.142;2023-12-20T03:37:43;1.47;;;1.37;;
18100;SDS011;9177;49.156;8.142;2023-12-20T03:40:10;1.50;;;1.40;;
18100;SDS011;9177;49.156;8.142;2023-12-20T03:42:40;1.53;;;1.43;;
18100;SDS011;9177;49.156;8.142;2023-12-20T03:45:10;1.53;;;1.43;;
18100;SDS011;9177;49.156;8.142;2023-12-20T03:47:37;1.63;;;1.53;;
18100;SDS011;9177;49.156;8.142;2023-12-20T03:50:08;1.50;;;1.30;;
18100;SDS011;9177;49.156;8.142;2023-12-20T03:52:34;1.83;;;1.47;;
18100;SDS011;9177;49.156;8.142;2023-12-20T03:55:01;1.40;;;1.30;;
18100;SDS011;9177;49.156;8.142;2023-12-20T03:57:28;1.53;;;1.43;;
18100;SDS011;9177;49.156;8.142;2023-12-20T03:59:55;1.70;;;1.60;;
18100;SDS011;9177;49.156;8.142;2023-12-20T04:02:22;1.40;;;1.30;;
18100;SDS011;9177;49.156;8.142;2023-12-20T04:04:48;1.30;;;1.20;;
18100;SDS011;9177;49.156;8.142;2023-12-20T04:07:17;1.63;;;1.10;;
18100;SDS011;9177;49.156;8.142;2023-12-20T04:09:43;1.13;;;1.10;;
18100;SDS011;9177;49.156;8.142;2023-12-20T04:12:10;1.40;;;1.30;;
18100;SDS011;9177;49.156;8.142;2023-12-20T04:14:39;1.33;;;1.13;;
18100;SDS011;9177;49.156;8.142;2023-12-20T04:17:06;1.00;;;1.00;;
18100;SDS011;9177;49.156;8.142;2023-12-20T04:19:33;1.17;;;1.07;;
18100;SDS011;9177;49.156;8.142;2023-12-20T04:22:00;1.40;;;1.20;;
18100;SDS011;9177;49.156;8.142;2023-12-20T04:24:30;1.10;;;1.10;;
18100;SDS011;9177;49.156;8.142;2023-12-20T04:26:57;1.20;;;1.10;;
18100;SDS011;9177;49.156;8.142;2023-12-20T04:29:24;1.00;;;1.00;;
18100;SDS011;9177;49.156;8.142;2023-12-20T04:31:51;1.00;;;1.00;;
18100;SDS011;9177;49.156;8.142;2023-12-20T04:34:18;1.00;;;1.00;;
18100;SDS011;9177;49.156;8.142;2023-12-20T04:36:44;1.27;;;0.90;;
18100;SDS011;9177;49.156;8.142;2023-12-20T04:39:12;1.00;;;0.90;;
18100;SDS011;9177;49.156;8.142;2023-12-20T04:41:41;1.20;;;1.10;;
18100;SDS011;9177;49.156;8.142;2023-12-20T04:44:08;1.27;;;1.00;;
18100;SDS011;9177;49.156;8.142;2023-12-20T04:46:35;0.93;;;0.90;;
18100;SDS011;9177;49.156;8.142;2023-12-20T04:49:02;1.30;;;1.20;;
18100;SDS011;9177;49.156;8.142;2023-12-20T04:51:29;1.00;;;1.00;;
18100;SDS011;9177;49.156;8.142;2023-12-20T04:53:55;1.17;;;1.07;;
18100;SDS011;9177;49.156;8.142;2023-12-20T04:56:22;1.17;;;0.93;;
18100;SDS011;9177;49.156;8.142;2023-12-20T04:58:50;0.93;;;0.93;;
18100;SDS011;9177;49.156;8.142;2023-12-20T05:01:17;1.40;;;1.10;;
18100;SDS011;9177;49.156;8.142;2023-12-20T05:03:47;1.10;;;1.00;;
18100;SDS011;9177;49.156;8.142;2023-12-20T05:06:14;1.03;;;1.03;;
18100;SDS011;9177;49.156;8.142;2023-12-20T05:08:41;0.97;;;0.97;;
18100;SDS011;9177;49.156;8.142;2023-12-20T05:11:08;0.90;;;0.90;;
18100;SDS011;9177;49.156;8.142;2023-12-20T05:13:35;0.90;;;0.90;;
18100;SDS011;9177;49.156;8.142;2023-12-20T05:16:03;0.90;;;0.90;;
18100;SDS011;9177;49.156;8.142;2023-12-20T05:18:31;0.90;;;0.80;;
18100;SDS011;9177;49.156;8.142;2023-12-20T05:20:57;0.80;;;0.80;;
18100;SDS011;9177;49.156;8.142;2023-12-20T05:23:24;0.97;;;0.97;;
18100;SDS011;9177;49.156;8.142;2023-12-20T05:25:52;1.10;;;1.00;;
18100;SDS011;9177;49.156;8.142;2023-12-20T05:28:20;0.90;;;0.90;;
18100;SDS011;9177;49.156;8.142;2023-12-20T05:30:47;1.03;;;1.03;;
18100;SDS011;9177;49.156;8.142;2023-12-20T05:33:16;0.97;;;0.97;;
18100;SDS011;9177;49.156;8.142;2023-12-20T05:35:42;1.50;;;0.83;;
18100;SDS011;9177;49.156;8.142;2023-12-20T05:38:09;0.80;;;0.80;;
18100;SDS011;9177;49.156;8.142;2023-12-20T05:40:39;1.00;;;1.00;;
18100;SDS011;9177;49.156;8.142;2023-12-20T05:43:06;0.83;;;0.83;;
18100;SDS011;9177;49.156;8.142;2023-12-20T05:45:35;0.87;;;0.87;;
18100;SDS011;9177;49.156;8.142;2023-12-20T05:48:03;1.10;;;0.90;;
18100;SDS011;9177;49.156;8.142;2023-12-20T05:50:34;0.80;;;0.80;;
18100;SDS011;9177;49.156;8.142;2023-12-20T05:53:01;0.80;;;0.80;;
18100;SDS011;9177;49.156;8.142;2023-12-20T05:55:28;0.80;;;0.73;;
18100;SDS011;9177;49.156;8.142;2023-12-20T05:57:55;0.70;;;0.70;;
18100;SDS011;9177;49.156;8.142;2023-12-20T06:00:22;0.90;;;0.90;;
18100;SDS011;9177;49.156;8.142;2023-12-20T06:02:50;0.93;;;0.93;;
18100;SDS011;9177;49.156;8.142;2023-12-20T06:05:17;1.00;;;0.90;;
18100;SDS011;9177;49.156;8.142;2023-12-20T06:07:45;0.90;;;0.90;;
18100;SDS011;9177;49.156;8.142;2023-12-20T06:10:13;0.73;;;0.73;;
18100;SDS011;9177;49.156;8.142;2023-12-20T06:12:43;0.80;;;0.80;;
18100;SDS011;9177;49.156;8.142;2023-12-20T06:15:12;0.70;;;0.70;;
18100;SDS011;9177;49.156;8.142;2023-12-20T06:17:39;0.90;;;0.90;;
18100;SDS011;9177;49.156;8.142;2023-12-20T06:20:06;0.80;;;0.80;;
18100;SDS011;9177;49.156;8.142;2023-12-20T06:22:36;0.70;;;0.70;;
18100;SDS011;9177;49.156;8.142;2023-12-20T06:25:05;0.87;;;0.87;;
18100;SDS011;9177;49.156;8.142;2023-12-20T06:27:32;0.80;;;0.73;;
18100;SDS011;9177;49.156;8.142;2023-12-20T06:29:59;1.00;;;0.90;;
18100;SDS011;9177;49.156;8.142;2023-12-20T06:32:26;0.70;;;0.70;;
18100;SDS011;9177;49.156;8.142;2023-12-20T06:34:54;0.87;;;0.80;;
18100;SDS011;9177;49.156;8.142;2023-12-20T06:37:24;0.97;;;0.90;;
18100;SDS011;9177;49.156;8.142;2023-12-20T06:39:51;1.00;;;0.90;;
18100;SDS011;9177;49.156;8.142;2023-12-20T06:42:19;0.70;;;0.70;;
18100;SDS011;9177;49.156;8.142;2023-12-20T06:44:46;0.70;;;0.70;;
18100;SDS011;9177;49.156;8.142;2023-12-20T06:47:12;1.13;;;0.90;;
18100;SDS011;9177;49.156;8.142;2023-12-20T06:49:39;0.80;;;0.80;;
18100;SDS011;9177;49.156;8.142;2023-12-20T06:52:06;0.90;;;0.90;;
18100;SDS011;9177;49.156;8.142;2023-12-20T06:54:33;0.83;;;0.83;;
18100;SDS011;9177;49.156;8.142;2023-12-20T06:57:00;0.90;;;0.90;;
18100;SDS011;9177;49.156;8.142;2023-12-20T06:59:29;0.80;;;0.80;;
18100;SDS011;9177;49.156;8.142;2023-12-20T07:01:58;0.90;;;0.90;;
18100;SDS011;9177;49.156;8.142;2023-12-20T07:04:25;1.00;;;0.90;;
18100;SDS011;9177;49.156;8.142;2023-12-20T07:06:52;0.67;;;0.67;;
18100;SDS011;9177;49.156;8.142;2023-12-20T07:09:22;0.80;;;0.70;;
18100;SDS011;9177;49.156;8.142;2023-12-20T07:11:49;1.20;;;0.90;;
18100;SDS011;9177;49.156;8.142;2023-12-20T07:14:15;0.80;;;0.73;;
18100;SDS011;9177;49.156;8.142;2023-12-20T07:16:44;0.97;;;0.90;;
18100;SDS011;9177;49.156;8.142;2023-12-20T07:19:13;1.13;;;0.90;;
18100;SDS011;9177;49.156;8.142;2023-12-20T07:21:40;1.07;;;0.97;;
18100;SDS011;9177;49.156;8.142;2023-12-20T07:24:07;0.87;;;0.87;;
18100;SDS011;9177;49.156;8.142;2023-12-20T07:26:34;0.90;;;0.90;;
18100;SDS011;9177;49.156;8.142;2023-12-20T07:29:02;0.80;;;0.80;;
18100;SDS011;9177;49.156;8.142;2023-12-20T07:31:29;0.90;;;0.90;;
18100;SDS011;9177;49.156;8.142;2023-12-20T07:33:57;0.93;;;0.87;;
18100;SDS011;9177;49.156;8.142;2023-12-20T07:36:24;0.90;;;0.90;;
18100;SDS011;9177;49.156;8.142;2023-12-20T07:38:51;0.90;;;0.90;;
18100;SDS011;9177;49.156;8.142;2023-12-20T07:41:18;0.80;;;0.80;;
18100;SDS011;9177;49.156;8.142;2023-12-20T07:43:46;0.70;;;0.70;;
18100;SDS011;9177;49.156;8.142;2023-12-20T07:46:13;0.80;;;0.80;;
18100;SDS011;9177;49.156;8.142;2023-12-20T07:48:39;1.60;;;0.70;;
18100;SDS011;9177;49.156;8.142;2023-12-20T07:51:08;1.83;;;0.90;;
18100;SDS011;9177;49.156;8.142;2023-12-20T07:53:35;2.07;;;0.90;;
18100;SDS011;9177;49.156;8.142;2023-12-20T07:56:13;0.90;;;0.80;;
18100;SDS011;9177;49.156;8.142;2023-12-20T07:58:40;1.10;;;1.00;;
18100;SDS011;9177;49.156;8.142;2023-12-20T08:01:08;1.07;;;0.90;;
18100;SDS011;9177;49.156;8.142;2023-12-20T08:03:35;1.10;;;1.00;;
18100;SDS011;9177;49.156;8.142;2023-12-20T08:06:02;0.90;;;0.90;;
18100;SDS011;9177;49.156;8.142;2023-12-20T08:08:31;0.90;;;0.70;;
18100;SDS011;9177;49.156;8.142;2023-12-20T08:10:57;1.00;;;1.00;;
18100;SDS011;9177;49.156;8.142;2023-12-20T08:13:25;1.00;;;0.93;;
18100;SDS011;9177;49.156;8.142;2023-12-20T08:15:52;0.80;;;0.80;;
18100;SDS011;9177;49.156;8.142;2023-12-20T08:18:21;0.90;;;0.80;;
18100;SDS011;9177;49.156;8.142;2023-12-20T08:20:48;1.50;;;0.90;;
18100;SDS011;9177;49.156;8.142;2023-12-20T08:23:18;1.83;;;1.00;;
18100;SDS011;9177;49.156;8.142;2023-12-20T08:25:46;2.17;;;1.10;;
18100;SDS011;9177;49.156;8.142;2023-12-20T08:28:17;2.37;;;1.10;;
18100;SDS011;9177;49.156;8.142;2023-12-20T08:30:43;3.50;;;0.80;;
18100;SDS011;9177;49.156;8.142;2023-12-20T08:33:12;1.07;;;0.80;;
18100;SDS011;9177;49.156;8.142;2023-12-20T08:35:39;1.50;;;1.00;;
18100;SDS011;9177;49.156;8.142;2023-12-20T08:38:06;2.03;;;1.30;;
18100;SDS011;9177;49.156;8.142;2023-12-20T08:40:35;5.13;;;1.50;;
18100;SDS011;9177;49.156;8.142;2023-12-20T08:43:05;1.60;;;1.00;;
18100;SDS011;9177;49.156;8.142;2023-12-20T08:45:31;1.80;;;1.03;;
18100;SDS011;9177;49.156;8.142;2023-12-20T08:47:58;2.17;;;1.10;;
18100;SDS011;9177;49.156;8.142;2023-12-20T08:50:25;1.93;;;1.07;;
18100;SDS011;9177;49.156;8.142;2023-12-20T08:52:52;3.40;;;1.20;;
18100;SDS011;9177;49.156;8.142;2023-12-20T08:55:19;2.33;;;1.03;;
18100;SDS011;9177;49.156;8.142;2023-12-20T08:57:47;1.93;;;1.20;;
18100;SDS011;9177;49.156;8.142;2023-12-20T09:00:16;2.27;;;1.10;;
18100;SDS011;9177;49.156;8.142;2023-12-20T09:02:45;1.57;;;1.00;;
18100;SDS011;9177;49.156;8.142;2023-12-20T09:05:12;2.47;;;1.20;;
18100;SDS011;9177;49.156;8.142;2023-12-20T09:07:41;3.17;;;1.27;;
18100;SDS011;9177;49.156;8.142;2023-12-20T09:10:08;5.03;;;1.27;;
18100;SDS011;9177;49.156;8.142;2023-12-20T09:12:35;2.77;;;1.10;;
18100;SDS011;9177;49.156;8.142;2023-12-20T09:15:06;3.43;;;1.23;;
18100;SDS011;9177;49.156;8.142;2023-12-20T09:17:34;3.40;;;0.90;;
18100;SDS011;9177;49.156;8.142;2023-12-20T09:20:01;5.77;;;1.40;;
18100;SDS011;9177;49.156;8.142;2023-12-20T09:22:30;2.70;;;1.17;;
18100;SDS011;9177;49.156;8.142;2023-12-20T09:24:58;3.83;;;1.27;;
18100;SDS011;9177;49.156;8.142;2023-12-20T09:27:29;2.70;;;1.10;;
18100;SDS011;9177;49.156;8.142;2023-12-20T09:29:56;3.63;;;1.53;;
18100;SDS011;9177;49.156;8.142;2023-12-20T09:32:23;2.03;;;1.10;;
18100;SDS011;9177;49.156;8.142;2023-12-20T09:34:51;2.83;;;1.50;;
18100;SDS011;9177;49.156;8.142;2023-12-20T09:37:18;2.53;;;1.30;;
18100;SDS011;9177;49.156;8.142;2023-12-20T09:39:45;3.57;;;1.33;;
18100;SDS011;9177;49.156;8.142;2023-12-20T09:42:12;1.90;;;1.10;;
18100;SDS011;9177;49.156;8.142;2023-12-20T09:44:47;5.57;;;1.20;;
18100;SDS011;9177;49.156;8.142;2023-12-20T09:47:14;3.80;;;1.43;;
18100;SDS011;9177;49.156;8.142;2023-12-20T09:49:44;2.70;;;1.40;;
18100;SDS011;9177;49.156;8.142;2023-12-20T09:52:12;2.17;;;1.17;;
18100;SDS011;9177;49.156;8.142;2023-12-20T09:54:40;4.43;;;1.50;;
18100;SDS011;9177;49.156;8.142;2023-12-20T09:57:10;3.23;;;1.20;;
18100;SDS011;9177;49.156;8.142;2023-12-20T09:59:37;2.10;;;1.10;;
18100;SDS011;9177;49.156;8.142;2023-12-20T10:02:05;3.30;;;1.53;;
18100;SDS011;9177;49.156;8.142;2023-12-20T10:04:41;3.00;;;1.03;;
18100;SDS011;9177;49.156;8.142;2023-12-20T10:07:15;4.93;;;1.30;;
18100;SDS011;9177;49.156;8.142;2023-12-20T10:09:42;2.87;;;1.20;;
18100;SDS011;9177;49.156;8.142;2023-12-20T10:12:10;2.77;;;1.20;;
18100;SDS011;9177;49.156;8.142;2023-12-20T10:14:38;1.93;;;1.10;;
18100;SDS011;9177;49.156;8.142;2023-12-20T10:17:05;4.20;;;1.30;;
18100;SDS011;9177;49.156;8.142;2023-12-20T10:19:32;1.93;;;0.97;;
18100;SDS011;9177;49.156;8.142;2023-12-20T10:22:00;2.87;;;1.10;;
18100;SDS011;9177;49.156;8.142;2023-12-20T10:24:31;1.93;;;0.90;;
18100;SDS011;9177;49.156;8.142;2023-12-20T10:27:07;1.40;;;1.00;;
18100;SDS011;9177;49.156;8.142;2023-12-20T10:29:37;1.73;;;1.03;;
18100;SDS011;9177;49.156;8.142;2023-12-20T10:32:23;2.00;;;1.17;;
18100;SDS011;9177;49.156;8.142;2023-12-20T10:34:52;1.30;;;1.10;;
18100;SDS011;9177;49.156;8.142;2023-12-20T10:37:21;1.33;;;1.10;;
18100;SDS011;9177;49.156;8.142;2023-12-20T10:39:51;1.37;;;0.93;;
18100;SDS011;9177;49.156;8.142;2023-12-20T10:42:21;2.50;;;0.97;;
18100;SDS011;9177;49.156;8.142;2023-12-20T10:44:49;3.33;;;1.40;;
18100;SDS011;9177;49.156;8.142;2023-12-20T10:47:19;2.03;;;1.30;;
18100;SDS011;9177;49.156;8.142;2023-12-20T10:49:46;2.67;;;1.20;;
18100;SDS011;9177;49.156;8.142;2023-12-20T10:52:14;3.03;;;1.07;;
18100;SDS011;9177;49.156;8.142;2023-12-20T10:54:42;3.60;;;1.20;;
18100;SDS011;9177;49.156;8.142;2023-12-20T10:57:13;5.10;;;1.40;;
18100;SDS011;9177;49.156;8.142;2023-12-20T10:59:41;6.37;;;1.50;;
18100;SDS011;9177;49.156;8.142;2023-12-20T11:02:14;7.13;;;1.30;;
18100;SDS011;9177;49.156;8.142;2023-12-20T11:04:44;8.83;;;1.77;;
18100;SDS011;9177;49.156;8.142;2023-12-20T11:07:17;5.37;;;1.40;;
18100;SDS011;9177;49.156;8.142;2023-12-20T11:09:56;9.13;;;1.73;;
18100;SDS011;9177;49.156;8.142;2023-12-20T11:12:34;9.07;;;1.80;;
18100;SDS011;9177;49.156;8.142;2023-12-20T11:15:07;10.37;;;2.00;;
18100;SDS011;9177;49.156;8.142;2023-12-20T11:17:34;7.93;;;1.80;;
18100;SDS011;9177;49.156;8.142;2023-12-20T11:20:04;13.83;;;2.07;;
18100;SDS011;9177;49.156;8.142;2023-12-20T11:22:31;15.73;;;1.93;;
18100;SDS011;9177;49.156;8.142;2023-12-20T11:25:03;6.10;;;1.87;;
18100;SDS011;9177;49.156;8.142;2023-12-20T11:27:34;10.83;;;2.13;;
18100;SDS011;9177;49.156;8.142;2023-12-20T11:30:03;18.13;;;2.20;;
18100;SDS011;9177;49.156;8.142;2023-12-20T11:32:34;12.10;;;2.33;;
18100;SDS011;9177;49.156;8.142;2023-12-20T11:35:02;13.43;;;2.37;;
18100;SDS011;9177;49.156;8.142;2023-12-20T11:37:43;7.70;;;2.17;;
18100;SDS011;9177;49.156;8.142;2023-12-20T11:40:14;11.90;;;2.07;;
18100;SDS011;9177;49.156;8.142;2023-12-20T11:42:43;14.30;;;2.47;;
18100;SDS011;9177;49.156;8.142;2023-12-20T11:45:11;11.43;;;2.33;;
18100;SDS011;9177;49.156;8.142;2023-12-20T11:47:42;11.43;;;2.40;;
18100;SDS011;9177;49.156;8.142;2023-12-20T11:50:10;13.03;;;2.60;;
18100;SDS011;9177;49.156;8.142;2023-12-20T11:52:36;16.37;;;2.33;;
18100;SDS011;9177;49.156;8.142;2023-12-20T11:55:04;11.13;;;2.10;;
18100;SDS011;9177;49.156;8.142;2023-12-20T11:57:31;12.07;;;2.40;;
18100;SDS011;9177;49.156;8.142;2023-12-20T12:00:00;11.57;;;2.80;;
18100;SDS011;9177;49.156;8.142;2023-12-20T12:02:27;10.17;;;2.23;;
18100;SDS011;9177;49.156;8.142;2023-12-20T12:04:56;9.87;;;2.03;;
18100;SDS011;9177;49.156;8.142;2023-12-20T12:07:24;13.33;;;2.80;;
18100;SDS011;9177;49.156;8.142;2023-12-20T12:09:51;9.50;;;2.47;;
18100;SDS011;9177;49.156;8.142;2023-12-20T12:12:19;11.40;;;2.37;;
18100;SDS011;9177;49.156;8.142;2023-12-20T12:14:46;11.97;;;2.47;;
18100;SDS011;9177;49.156;8.142;2023-12-20T12:17:16;12.83;;;2.40;;
18100;SDS011;9177;49.156;8.142;2023-12-20T12:19:43;9.77;;;2.10;;
18100;SDS011;9177;49.156;8.142;2023-12-20T12:22:11;7.40;;;2.70;;
18100;SDS011;9177;49.156;8.142;2023-12-20T12:24:40;11.50;;;2.50;;
18100;SDS011;9177;49.156;8.142;2023-12-20T12:27:07;7.77;;;2.13;;
18100;SDS011;9177;49.156;8.142;2023-12-20T12:29:35;9.43;;;2.37;;
18100;SDS011;9177;49.156;8.142;2023-12-20T12:32:04;12.87;;;2.87;;
18100;SDS011;9177;49.156;8.142;2023-12-20T12:34:38;9.47;;;2.30;;
18100;SDS011;9177;49.156;8.142;2023-12-20T12:37:15;8.87;;;2.47;;
18100;SDS011;9177;49.156;8.142;2023-12-20T12:39:46;7.83;;;2.63;;
18100;SDS011;9177;49.156;8.142;2023-12-20T12:42:13;9.57;;;2.50;;
18100;SDS011;9177;49.156;8.142;2023-12-20T12:44:41;8.00;;;2.40;;
18100;SDS011;9177;49.156;8.142;2023-12-20T12:47:07;7.73;;;2.13;;
18100;SDS011;9177;49.156;8.142;2023-12-20T12:49:34;5.17;;;2.07;;
18100;SDS011;9177;49.156;8.142;2023-12-20T12:52:02;12.57;;;2.47;;
18100;SDS011;9177;49.156;8.142;2023-12-20T12:54:32;10.53;;;2.67;;
18100;SDS011;9177;49.156;8.142;2023-12-20T12:57:03;6.37;;;2.20;;
18100;SDS011;9177;49.156;8.142;2023-12-20T12:59:32;9.00;;;2.03;;
18100;SDS011;9177;49.156;8.142;2023-12-20T13:02:03;6.03;;;1.90;;
18100;SDS011;9177;49.156;8.142;2023-12-20T13:04:30;7.73;;;2.10;;
18100;SDS011;9177;49.156;8.142;2023-12-20T13:07:00;7.00;;;2.20;;
18100;SDS011;9177;49.156;8.142;2023-12-20T13:09:28;6.77;;;1.90;;
18100;SDS011;9177;49.156;8.142;2023-12-20T13:11:55;6.20;;;2.10;;
18100;SDS011;9177;49.156;8.142;2023-12-20T13:14:28;5.63;;;2.07;;
18100;SDS011;9177;49.156;8.142;2023-12-20T13:17:02;5.13;;;1.73;;
18100;SDS011;9177;49.156;8.142;2023-12-20T13:19:30;12.23;;;2.03;;
18100;SDS011;9177;49.156;8.142;2023-12-20T13:22:16;6.37;;;1.80;;
18100;SDS011;9177;49.156;8.142;2023-12-20T13:24:45;5.10;;;2.03;;
18100;SDS011;9177;49.156;8.142;2023-12-20T13:27:11;6.30;;;2.20;;
18100;SDS011;9177;49.156;8.142;2023-12-20T13:29:41;6.27;;;1.50;;
18100;SDS011;9177;49.156;8.142;2023-12-20T13:32:11;6.43;;;1.97;;
18100;SDS011;9177;49.156;8.142;2023-12-20T13:34:41;5.10;;;1.60;;
18100;SDS011;9177;49.156;8.142;2023-12-20T13:37:08;4.87;;;1.47;;
18100;SDS011;9177;49.156;8.142;2023-12-20T13:39:37;5.97;;;2.00;;
18100;SDS011;9177;49.156;8.142;2023-12-20T13:42:10;7.40;;;1.90;;
18100;SDS011;9177;49.156;8.142;2023-12-20T13:44:37;3.53;;;2.07;;
18100;SDS011;9177;49.156;8.142;2023-12-20T13:47:04;9.17;;;3.10;;
18100;SDS011;9177;49.156;8.142;2023-12-20T13:49:31;8.70;;;4.53;;
18100;SDS011;9177;49.156;8.142;2023-12-20T13:52:01;10.70;;;7.47;;
18100;SDS011;9177;49.156;8.142;2023-12-20T13:54:29;13.97;;;11.20;;
18100;SDS011;9177;49.156;8.142;2023-12-20T13:57:01;19.20;;;17.13;;
18100;SDS011;9177;49.156;8.142;2023-12-20T13:59:29;107.80;;;97.47;;
18100;SDS011;9177;49.156;8.142;2023-12-20T14:02:00;256.00;;;233.83;;
18100;SDS011;9177;49.156;8.142;2023-12-20T14:04:28;248.77;;;227.73;;
18100;SDS011;9177;49.156;8.142;2023-12-20T14:06:56;493.67;;;448.67;;
18100;SDS011;9177;49.156;8.142;2023-12-20T14:09:24;617.37;;;562.17;;
18100;SDS011;9177;49.156;8.142;2023-12-20T14:11:57;659.83;;;599.83;;
18100;SDS011;9177;49.156;8.142;2023-12-20T14:14:24;637.27;;;579.53;;
18100;SDS011;9177;49.156;8.142;2023-12-20T14:16:53;636.00;;;578.93;;
18100;SDS011;9177;49.156;8.142;2023-12-20T14:19:21;551.03;;;501.17;;
18100;SDS011;9177;49.156;8.142;2023-12-20T14:21:48;497.43;;;452.10;;
18100;SDS011;9177;49.156;8.142;2023-12-20T14:24:14;505.40;;;460.10;;
18100;SDS011;9177;49.156;8.142;2023-12-20T14:26:41;511.40;;;465.07;;
18100;SDS011;9177;49.156;8.142;2023-12-20T14:29:08;491.80;;;446.93;;
18100;SDS011;9177;49.156;8.142;2023-12-20T14:31:35;478.00;;;434.33;;
18100;SDS011;9177;49.156;8.142;2023-12-20T14:34:05;463.53;;;421.37;;
18100;SDS011;9177;49.156;8.142;2023-12-20T14:36:32;454.17;;;413.20;;
18100;SDS011;9177;49.156;8.142;2023-12-20T14:38:59;442.17;;;402.00;;
18100;SDS011;9177;49.156;8.142;2023-12-20T14:41:27;432.23;;;393.33;;
18100;SDS011;9177;49.156;8.142;2023-12-20T14:43:53;427.23;;;389.40;;
18100;SDS011;9177;49.156;8.142;2023-12-20T14:46:20;419.93;;;382.07;;
18100;SDS011;9177;49.156;8.142;2023-12-20T14:48:47;415.40;;;378.77;;
18100;SDS011;9177;49.156;8.142;2023-12-20T14:51:16;408.83;;;372.33;;
18100;SDS011;9177;49.156;8.142;2023-12-20T14:53:43;386.13;;;352.07;;
18100;SDS011;9177;49.156;8.142;2023-12-20T14:56:12;382.73;;;349.30;;
18100;SDS011;9177;49.156;8.142;2023-12-20T14:58:39;371.13;;;338.60;;
18100;SDS011;9177;49.156;8.142;2023-12-20T15:01:09;358.57;;;326.97;;